Time;durP1;ratioP1;P1;durP2;ratioP2;P2;SDS_P1;SDS_P2;PMS_P1;PMS_P2;Temp;Humidity;BMP_temperature;BMP_pressure;BME280_temperature;BME280_humidity;BME280_pressure;Samples;Min_cycle;Max_cycle;Signal;HPM_P1;HPM_P2
2023/02/19 00:01:36;;;;;;;14.87;11.63;;;10.80;99.90;;;;;;5094826;28;20206;-77
2023/02/19 00:04:05;;;;;;;16.17;11.03;;;10.90;99.90;;;;;;5094939;28;20201;-78
2023/02/19 00:06:33;;;;;;;14.73;9.43;;;10.90;99.90;;;;;;5094686;28;20641;-79
2023/02/19 00:09:03;;;;;;;14.00;10.10;;;10.90;99.90;;;;;;5094529;28;20839;-81
2023/02/19 00:11:32;;;;;;;12.60;9.37;;;10.90;99.90;;;;;;5093650;28;20222;-77
2023/02/19 00:14:00;;;;;;;12.03;8.47;;;10.90;99.90;;;;;;5094153;28;20213;-77
2023/02/19 00:16:29;;;;;;;13.37;9.10;;;10.90;99.90;;;;;;5094600;28;20199;-79
2023/02/19 00:18:57;;;;;;;13.40;8.53;;;10.90;99.90;;;;;;5093570;28;20226;-77
2023/02/19 00:21:25;;;;;;;13.57;8.17;;;10.90;99.90;;;;;;5094241;28;20206;-76
2023/02/19 00:23:54;;;;;;;13.83;7.80;;;10.90;99.90;;;;;;5095054;28;20198;-79
2023/02/19 00:26:23;;;;;;;12.23;7.10;;;10.90;99.90;;;;;;5094264;28;20209;-76
2023/02/19 00:28:51;;;;;;;11.80;7.27;;;10.90;99.90;;;;;;5094214;28;20207;-77
2023/02/19 00:31:21;;;;;;;10.43;7.03;;;10.90;99.90;;;;;;5093919;28;20566;-77
2023/02/19 00:33:50;;;;;;;10.40;6.60;;;11.00;99.90;;;;;;5094018;28;20708;-75
2023/02/19 00:36:17;;;;;;;9.03;5.77;;;10.90;99.90;;;;;;5087464;28;20207;-76
2023/02/19 00:38:45;;;;;;;9.63;5.67;;;10.90;99.90;;;;;;5087412;28;20212;-77
2023/02/19 00:41:19;;;;;;;9.17;5.57;;;10.90;99.90;;;;;;5080657;28;20194;-77
2023/02/19 00:43:53;;;;;;;6.87;4.60;;;11.00;99.90;;;;;;5093651;28;20228;-78
2023/02/19 00:46:21;;;;;;;8.57;5.20;;;10.90;99.90;;;;;;5094410;28;20224;-77
2023/02/19 00:48:48;;;;;;;11.20;4.80;;;10.80;99.90;;;;;;5094238;28;20200;-79
2023/02/19 00:51:15;;;;;;;8.50;5.53;;;10.90;99.90;;;;;;5093767;28;20211;-77
2023/02/19 00:53:43;;;;;;;11.77;4.83;;;10.90;99.90;;;;;;5093914;28;20237;-79
2023/02/19 00:56:09;;;;;;;11.00;5.10;;;10.90;99.90;;;;;;5083645;28;20213;-77
2023/02/19 00:58:37;;;;;;;7.60;4.77;;;10.90;99.90;;;;;;5090298;28;20209;-76
2023/02/19 01:01:08;;;;;;;9.20;4.77;;;10.90;99.90;;;;;;5093920;28;20209;-78
2023/02/19 01:03:35;;;;;;;11.77;4.67;;;10.90;99.90;;;;;;5094045;28;20197;-77
2023/02/19 01:06:03;;;;;;;12.27;4.00;;;10.90;99.90;;;;;;5094112;28;20198;-77
2023/02/19 01:08:32;;;;;;;5.97;3.60;;;10.80;99.90;;;;;;5093809;28;20191;-77
2023/02/19 01:10:59;;;;;;;7.83;3.63;;;10.90;99.90;;;;;;5093708;28;20226;-76
2023/02/19 01:13:27;;;;;;;9.63;3.70;;;10.80;99.90;;;;;;5093205;28;20230;-80
2023/02/19 01:15:54;;;;;;;7.70;3.10;;;10.90;99.90;;;;;;5093823;28;20210;-78
2023/02/19 01:18:24;;;;;;;6.90;3.30;;;10.90;99.90;;;;;;5093632;28;20214;-80
2023/02/19 01:20:51;;;;;;;10.43;3.30;;;10.90;99.90;;;;;;5089732;28;20206;-79
2023/02/19 01:23:17;;;;;;;7.37;3.33;;;10.80;99.90;;;;;;5080156;28;20198;-77
2023/02/19 01:25:44;;;;;;;9.30;4.00;;;10.80;99.90;;;;;;5093431;28;20210;-81
2023/02/19 01:28:11;;;;;;;10.27;3.33;;;10.80;99.90;;;;;;5093598;28;20214;-76
2023/02/19 01:30:39;;;;;;;8.77;3.07;;;10.90;99.90;;;;;;5092755;28;20202;-78
2023/02/19 01:33:06;;;;;;;15.53;4.80;;;10.90;99.90;;;;;;5092854;28;20225;-77
2023/02/19 01:35:35;;;;;;;5.47;2.93;;;10.90;99.90;;;;;;5092854;28;20577;-76
2023/02/19 01:38:01;;;;;;;8.77;3.27;;;10.80;99.90;;;;;;5085600;28;20581;-77
2023/02/19 01:40:28;;;;;;;9.97;3.53;;;10.80;99.90;;;;;;5087319;28;20205;-75
2023/02/19 01:42:55;;;;;;;7.63;2.83;;;10.80;99.90;;;;;;5093151;28;20206;-76
2023/02/19 01:45:26;;;;;;;10.83;3.37;;;10.70;99.90;;;;;;5093025;28;20202;-78
2023/02/19 01:47:59;;;;;;;7.63;2.70;;;10.80;99.90;;;;;;5092666;28;20206;-77
2023/02/19 01:50:29;;;;;;;5.13;2.63;;;10.80;99.90;;;;;;5092569;28;20686;-78
2023/02/19 01:52:58;;;;;;;7.00;3.10;;;11.00;99.90;;;;;;5092678;28;20703;-78
2023/02/19 01:55:25;;;;;;;6.90;3.00;;;10.90;99.90;;;;;;5092298;28;20198;-80
2023/02/19 01:57:55;;;;;;;9.20;3.03;;;10.90;99.90;;;;;;5092580;28;20210;-78
2023/02/19 02:00:23;;;;;;;8.20;3.00;;;11.00;99.90;;;;;;5092946;28;20627;-79
2023/02/19 02:02:54;;;;;;;5.10;3.27;;;10.90;99.90;;;;;;5092503;28;20646;-76
2023/02/19 02:05:35;;;;;;;8.47;3.00;;;10.90;99.90;;;;;;5092853;28;20214;-77
2023/02/19 02:10:49;;;;;;;10.40;2.70;;;10.90;99.90;;;;;;5092659;28;20236;-75
2023/02/19 02:13:16;;;;;;;7.57;3.47;;;10.80;99.90;;;;;;5092902;28;20229;-75
2023/02/19 02:15:51;;;;;;;11.67;2.97;;;10.80;99.90;;;;;;5093079;28;20202;-76
2023/02/19 02:18:28;;;;;;;7.87;3.00;;;11.00;99.90;;;;;;5091793;28;20660;-78
2023/02/19 02:21:13;;;;;;;7.97;2.50;;;10.80;99.90;;;;;;5084154;28;20212;-78
2023/02/19 02:23:59;;;;;;;11.20;3.43;;;10.80;99.90;;;;;;5077392;28;20191;-77
2023/02/19 02:26:41;;;;;;;6.13;2.70;;;10.70;99.90;;;;;;5092994;28;20691;-77
2023/02/19 02:29:51;;;;;;;7.50;2.93;;;10.70;99.90;;;;;;5092218;28;20202;-76
2023/02/19 02:32:21;;;;;;;8.77;3.10;;;10.70;99.90;;;;;;5072440;28;20212;-80
2023/02/19 02:34:52;;;;;;;6.97;2.50;;;10.70;99.90;;;;;;5092427;28;20221;-78
2023/02/19 02:37:19;;;;;;;12.03;3.13;;;10.70;99.90;;;;;;5092715;28;20214;-79
2023/02/19 02:39:47;;;;;;;8.93;3.20;;;10.70;99.90;;;;;;5090708;28;20438;-76
2023/02/19 02:42:27;;;;;;;9.63;2.60;;;10.90;99.90;;;;;;5087729;28;20195;-76
2023/02/19 02:47:43;;;;;;;8.77;2.63;;;10.80;99.90;;;;;;5096855;28;20247;-77
2023/02/19 02:50:15;;;;;;;4.77;2.17;;;10.80;99.90;;;;;;5096791;28;20560;-76
2023/02/19 02:55:37;;;;;;;6.43;2.10;;;10.70;99.90;;;;;;5096737;28;20250;-79
2023/02/19 02:58:07;;;;;;;8.83;2.33;;;10.70;99.90;;;;;;5096355;28;20204;-78
2023/02/19 03:03:22;;;;;;;6.50;2.33;;;10.70;99.90;;;;;;5095797;28;20612;-79
2023/02/19 03:05:50;;;;;;;10.87;3.00;;;10.70;99.90;;;;;;5096340;28;20198;-78
2023/02/19 03:08:23;;;;;;;8.07;2.43;;;10.70;99.90;;;;;;5096148;28;20220;-78
2023/02/19 03:10:53;;;;;;;10.90;2.43;;;10.70;99.90;;;;;;5095924;28;20221;-77
2023/02/19 03:19:19;;;;;;;12.40;2.90;;;10.70;99.90;;;;;;5096823;28;20339;-77
2023/02/19 03:21:51;;;;;;;13.73;2.93;;;10.80;99.90;;;;;;5095844;28;20208;-75
2023/02/19 03:27:08;;;;;;;9.23;2.23;;;10.80;99.90;;;;;;5095815;28;20204;-76
2023/02/19 03:29:37;;;;;;;10.10;2.60;;;10.80;99.90;;;;;;5095512;28;20213;-77
2023/02/19 03:32:09;;;;;;;11.60;2.73;;;10.80;99.90;;;;;;5095883;28;20205;-78
2023/02/19 03:34:40;;;;;;;9.90;2.63;;;10.80;99.90;;;;;;5095215;28;20236;-78
2023/02/19 03:37:12;;;;;;;7.87;2.20;;;10.80;99.90;;;;;;5095499;28;20198;-77
2023/02/19 03:39:43;;;;;;;10.33;2.57;;;10.80;99.90;;;;;;5096194;28;20653;-77
2023/02/19 03:42:18;;;;;;;16.00;3.20;;;10.80;99.90;;;;;;5096103;28;20205;-78
2023/02/19 03:44:53;;;;;;;8.50;2.37;;;10.80;99.90;;;;;;5095231;28;20222;-77
2023/02/19 03:47:25;;;;;;;7.77;2.60;;;10.80;99.90;;;;;;5095275;28;20573;-77
2023/02/19 03:49:58;;;;;;;10.97;2.20;;;10.80;99.90;;;;;;5095981;28;20208;-77
2023/02/19 03:52:35;;;;;;;9.20;2.37;;;10.80;99.90;;;;;;5094619;28;20206;-77
2023/02/19 03:55:08;;;;;;;6.90;2.37;;;10.80;99.90;;;;;;5095213;28;20229;-75
2023/02/19 03:57:45;;;;;;;7.73;2.53;;;10.90;99.90;;;;;;5095007;28;20213;-76
2023/02/19 04:00:17;;;;;;;11.53;2.73;;;10.80;99.90;;;;;;5095338;28;20212;-77
2023/02/19 04:02:50;;;;;;;6.90;2.13;;;10.90;99.90;;;;;;5095178;28;20197;-77
2023/02/19 04:05:19;;;;;;;10.40;3.07;;;10.90;99.90;;;;;;5094943;28;20687;-76
2023/02/19 04:07:50;;;;;;;13.70;2.93;;;10.80;99.90;;;;;;5095238;28;20212;-77
2023/02/19 04:10:18;;;;;;;11.53;3.23;;;10.80;99.90;;;;;;5094913;28;20197;-79
2023/02/19 04:13:02;;;;;;;9.13;2.43;;;10.70;99.90;;;;;;5095383;28;20226;-77
2023/02/19 04:15:33;;;;;;;10.23;2.40;;;10.80;99.90;;;;;;5094623;28;20233;-77
2023/02/19 04:18:06;;;;;;;12.63;3.10;;;10.80;99.90;;;;;;5094273;28;20216;-76
2023/02/19 04:20:39;;;;;;;15.53;2.77;;;10.80;99.90;;;;;;5093907;28;20217;-77
2023/02/19 04:23:06;;;;;;;10.07;2.70;;;10.80;99.90;;;;;;5094551;28;20198;-76
2023/02/19 04:25:34;;;;;;;11.60;2.20;;;10.80;99.90;;;;;;5094591;28;20202;-75
2023/02/19 04:28:01;;;;;;;10.60;2.57;;;10.70;99.90;;;;;;5094890;28;20208;-76
2023/02/19 04:30:28;;;;;;;14.50;3.13;;;10.70;99.90;;;;;;5084893;28;20653;-78
2023/02/19 04:32:56;;;;;;;9.40;3.33;;;10.70;99.90;;;;;;5094535;28;20202;-78
2023/02/19 04:35:24;;;;;;;16.15;4.13;;;10.70;99.90;;;;;;5093587;28;20457;-76
2023/02/19 04:37:51;;;;;;;13.47;3.23;;;10.70;99.90;;;;;;5094440;28;20197;-77
2023/02/19 04:40:18;;;;;;;13.43;3.07;;;10.70;99.90;;;;;;5094287;28;20205;-77
2023/02/19 04:42:45;;;;;;;13.37;3.27;;;10.70;99.90;;;;;;5093586;28;20197;-75
2023/02/19 04:45:12;;;;;;;10.60;2.97;;;10.70;99.90;;;;;;5093433;28;20210;-76
2023/02/19 04:47:38;;;;;;;16.20;2.90;;;10.70;99.90;;;;;;5086219;28;20641;-75
2023/02/19 04:50:06;;;;;;;10.43;2.57;;;10.70;99.90;;;;;;5091378;28;20201;-77
2023/02/19 04:52:35;;;;;;;16.90;3.13;;;10.60;99.90;;;;;;5094238;28;20198;-76
2023/02/19 04:55:01;;;;;;;12.90;2.77;;;10.60;99.90;;;;;;5093635;28;20279;-77
2023/02/19 04:57:28;;;;;;;12.43;2.97;;;10.70;99.90;;;;;;5093305;28;20213;-77
2023/02/19 04:59:55;;;;;;;11.93;3.30;;;10.60;99.90;;;;;;5093829;28;20221;-77
2023/02/19 05:02:22;;;;;;;10.63;2.60;;;10.60;99.90;;;;;;5094148;28;20201;-77
2023/02/19 05:04:49;;;;;;;16.60;3.57;;;10.60;99.90;;;;;;5093032;28;20206;-76
2023/02/19 05:07:18;;;;;;;11.47;2.97;;;10.60;99.90;;;;;;5084552;28;20209;-76
2023/02/19 05:09:46;;;;;;;12.60;3.33;;;10.50;99.90;;;;;;5094419;28;20645;-77
2023/02/19 05:12:13;;;;;;;12.23;3.00;;;10.50;99.90;;;;;;5094206;28;20221;-78
2023/02/19 05:14:40;;;;;;;11.43;2.87;;;10.50;99.90;;;;;;5094058;28;20572;-77
2023/02/19 05:17:07;;;;;;;10.53;2.67;;;10.60;99.90;;;;;;5094497;28;20209;-76
2023/02/19 05:19:34;;;;;;;12.13;2.77;;;10.50;99.90;;;;;;5093225;28;20189;-76
2023/02/19 05:22:01;;;;;;;10.97;3.37;;;10.50;99.90;;;;;;5093561;28;20679;-76
2023/02/19 05:24:28;;;;;;;10.30;3.17;;;10.50;99.90;;;;;;5093507;28;20209;-77
2023/02/19 05:26:57;;;;;;;8.40;2.73;;;10.60;99.90;;;;;;5093458;28;20201;-78
2023/02/19 05:29:24;;;;;;;12.90;3.00;;;10.60;99.90;;;;;;5093778;28;20206;-76
2023/02/19 05:31:50;;;;;;;12.53;2.77;;;10.60;99.90;;;;;;5093477;28;20272;-75
2023/02/19 05:34:18;;;;;;;11.50;2.70;;;10.60;99.90;;;;;;5093893;28;20252;-76
2023/02/19 05:36:46;;;;;;;12.03;3.23;;;10.50;99.90;;;;;;5093599;28;20200;-78
2023/02/19 05:39:13;;;;;;;16.67;2.73;;;10.50;99.90;;;;;;5093269;28;20197;-78
2023/02/19 05:41:40;;;;;;;8.97;2.80;;;10.50;99.90;;;;;;5094539;28;20197;-76
2023/02/19 05:44:11;;;;;;;9.50;2.97;;;10.50;99.90;;;;;;5093755;28;20201;-79
2023/02/19 05:46:38;;;;;;;20.50;4.57;;;10.50;99.90;;;;;;5090395;28;20220;-76
2023/02/19 05:49:04;;;;;;;14.07;2.90;;;10.50;99.90;;;;;;5084158;28;20200;-77
2023/02/19 05:51:34;;;;;;;8.83;2.80;;;10.50;99.90;;;;;;5084032;28;20209;-77
2023/02/19 05:54:00;;;;;;;10.43;2.53;;;10.60;99.90;;;;;;5083258;28;20279;-78
2023/02/19 05:56:31;;;;;;;12.00;3.53;;;10.50;99.90;;;;;;5085650;28;20206;-77
2023/02/19 05:58:59;;;;;;;18.53;3.47;;;10.50;99.90;;;;;;5083374;28;20208;-77
2023/02/19 06:01:29;;;;;;;12.07;3.40;;;10.50;99.90;;;;;;5085208;28;20209;-77
2023/02/19 06:03:56;;;;;;;15.70;3.33;;;10.50;99.90;;;;;;5093363;28;20205;-77
2023/02/19 06:06:24;;;;;;;12.53;2.80;;;10.50;99.90;;;;;;5093470;28;20217;-77
2023/02/19 06:08:51;;;;;;;11.93;2.93;;;10.50;99.90;;;;;;5093209;28;20204;-77
2023/02/19 06:11:19;;;;;;;12.93;3.23;;;10.40;99.90;;;;;;5093319;28;20237;-77
2023/02/19 06:13:48;;;;;;;13.47;2.57;;;10.50;99.90;;;;;;5092757;28;20197;-77
2023/02/19 06:16:16;;;;;;;11.30;2.77;;;10.40;99.90;;;;;;5095149;28;20204;-76
2023/02/19 06:18:44;;;;;;;8.83;3.03;;;10.40;99.90;;;;;;5097416;28;20201;-77
2023/02/19 06:21:12;;;;;;;10.70;2.43;;;10.40;99.90;;;;;;5097235;28;20197;-78
2023/02/19 06:23:39;;;;;;;9.67;3.07;;;10.50;99.90;;;;;;5098365;28;20201;-76
2023/02/19 06:26:08;;;;;;;12.13;2.77;;;10.40;99.90;;;;;;5098021;28;20621;-76
2023/02/19 06:28:36;;;;;;;12.43;2.97;;;10.40;99.90;;;;;;5097752;28;20197;-76
2023/02/19 06:31:03;;;;;;;13.10;2.93;;;10.40;99.90;;;;;;5097109;28;20199;-78
2023/02/19 06:33:30;;;;;;;12.83;3.30;;;10.40;99.90;;;;;;5097052;28;20655;-79
2023/02/19 06:36:00;;;;;;;9.30;2.53;;;10.40;99.90;;;;;;5097003;28;20217;-75
2023/02/19 06:38:29;;;;;;;15.50;2.83;;;10.40;99.90;;;;;;5096655;28;20201;-78
2023/02/19 06:41:00;;;;;;;10.00;2.00;;;10.40;99.90;;;;;;5096795;28;20205;-79
2023/02/19 06:43:27;;;;;;;8.00;2.67;;;10.50;99.90;;;;;;5085018;28;20219;-76
2023/02/19 06:45:54;;;;;;;13.53;2.77;;;10.40;99.90;;;;;;5096760;28;20587;-78
2023/02/19 06:48:21;;;;;;;9.57;2.53;;;10.40;99.90;;;;;;5096893;28;20258;-77
2023/02/19 06:50:48;;;;;;;13.17;2.80;;;10.30;99.90;;;;;;5096628;28;20216;-77
2023/02/19 06:53:16;;;;;;;11.73;3.20;;;10.40;99.90;;;;;;5096390;28;20197;-77
2023/02/19 06:55:43;;;;;;;10.47;2.33;;;10.40;99.90;;;;;;5096145;28;20233;-77
2023/02/19 06:58:10;;;;;;;10.93;3.03;;;10.40;99.90;;;;;;5096377;28;20194;-77
2023/02/19 07:00:37;;;;;;;12.17;2.87;;;10.40;99.90;;;;;;5096531;28;20672;-77
2023/02/19 07:03:04;;;;;;;8.20;2.57;;;10.30;99.90;;;;;;5096771;28;20197;-78
2023/02/19 07:05:31;;;;;;;9.50;2.17;;;10.50;99.90;;;;;;5096661;28;20208;-77
2023/02/19 07:07:58;;;;;;;10.00;2.57;;;10.30;99.90;;;;;;5096455;28;20197;-78
2023/02/19 07:10:27;;;;;;;10.13;3.10;;;10.30;99.90;;;;;;5096392;28;20209;-78
2023/02/19 07:12:53;;;;;;;12.57;3.00;;;10.30;99.90;;;;;;5096174;28;20696;-76
2023/02/19 07:15:20;;;;;;;8.93;2.10;;;10.40;99.90;;;;;;5096010;28;20226;-78
2023/02/19 07:17:47;;;;;;;10.53;2.70;;;10.40;99.90;;;;;;5096974;28;20212;-85
2023/02/19 07:20:14;;;;;;;13.13;2.47;;;10.40;99.90;;;;;;5095931;28;20778;-77
2023/02/19 07:22:42;;;;;;;9.43;2.30;;;10.50;99.90;;;;;;5096674;28;20202;-79
2023/02/19 07:25:09;;;;;;;9.40;2.47;;;10.40;99.90;;;;;;5096141;28;20213;-77
2023/02/19 07:27:38;;;;;;;8.57;2.40;;;10.40;99.90;;;;;;5094334;28;20210;-77
2023/02/19 07:30:06;;;;;;;6.90;1.93;;;10.30;99.90;;;;;;5095804;28;20197;-76
2023/02/19 07:32:33;;;;;;;7.90;2.43;;;10.40;99.90;;;;;;5096414;28;20258;-75
2023/02/19 07:35:00;;;;;;;11.43;2.70;;;10.40;99.90;;;;;;5096053;28;20217;-77
2023/02/19 07:37:27;;;;;;;11.20;2.80;;;10.40;99.90;;;;;;5095920;28;20204;-76
2023/02/19 07:39:54;;;;;;;11.07;3.20;;;10.40;99.90;;;;;;5095926;28;20215;-76
2023/02/19 07:42:22;;;;;;;9.60;2.67;;;10.50;99.90;;;;;;5085499;28;20211;-78
2023/02/19 07:44:52;;;;;;;10.93;2.30;;;10.50;99.90;;;;;;5094664;28;20217;-76
2023/02/19 07:47:18;;;;;;;8.20;2.50;;;10.40;99.90;;;;;;5096621;28;20212;-76
2023/02/19 07:49:45;;;;;;;8.97;2.50;;;10.40;99.90;;;;;;5095615;28;20208;-78
2023/02/19 07:52:12;;;;;;;12.47;2.97;;;10.40;99.90;;;;;;5088579;28;20202;-76
2023/02/19 07:54:39;;;;;;;8.47;2.63;;;10.40;99.90;;;;;;5089168;28;20221;-76
2023/02/19 07:57:07;;;;;;;13.37;2.50;;;10.40;99.90;;;;;;5090372;28;20227;-77
2023/02/19 07:59:34;;;;;;;9.23;2.23;;;10.50;99.90;;;;;;5080216;28;20194;-76
2023/02/19 08:04:47;;;;;;;11.03;2.40;;;10.50;99.90;;;;;;5083788;28;20196;-78
2023/02/19 08:07:14;;;;;;;11.87;2.80;;;10.50;99.90;;;;;;5094633;28;20304;-77
2023/02/19 08:09:41;;;;;;;6.00;2.00;;;10.50;99.90;;;;;;5095546;28;20205;-80
2023/02/19 08:14:57;;;;;;;13.47;2.57;;;10.40;99.90;;;;;;5094753;28;20302;-79
2023/02/19 08:17:25;;;;;;;8.20;2.33;;;10.50;99.90;;;;;;5094561;28;20649;-77
2023/02/19 08:19:52;;;;;;;10.63;2.87;;;10.70;99.90;;;;;;5095118;28;20205;-79
2023/02/19 08:22:19;;;;;;;7.80;1.93;;;10.70;99.90;;;;;;5094664;28;20564;-77
2023/02/19 08:24:47;;;;;;;10.30;2.60;;;10.70;99.90;;;;;;5094812;28;20254;-76
2023/02/19 08:27:14;;;;;;;12.40;2.67;;;10.80;99.90;;;;;;5095034;28;20205;-77
2023/02/19 08:29:40;;;;;;;7.30;2.20;;;10.60;99.90;;;;;;5095092;28;20193;-78
2023/02/19 08:32:07;;;;;;;10.63;2.53;;;10.60;99.90;;;;;;5094296;28;20657;-76
2023/02/19 08:34:37;;;;;;;11.10;2.43;;;10.70;99.90;;;;;;5094396;28;20194;-77
2023/02/19 08:37:04;;;;;;;11.67;2.37;;;10.60;99.90;;;;;;5094109;28;20202;-77
2023/02/19 08:39:31;;;;;;;6.57;2.83;;;10.60;99.90;;;;;;5094317;28;20205;-78
2023/02/19 08:41:59;;;;;;;13.97;2.80;;;10.60;99.90;;;;;;5094310;28;20220;-76
2023/02/19 08:44:28;;;;;;;11.47;3.33;;;10.50;99.90;;;;;;5094269;28;20292;-76
2023/02/19 08:46:58;;;;;;;11.67;2.93;;;10.50;99.90;;;;;;5080556;28;20209;-78
2023/02/19 08:49:26;;;;;;;10.97;2.40;;;10.50;99.90;;;;;;5093831;28;20653;-76
2023/02/19 08:51:54;;;;;;;11.20;2.80;;;10.60;99.90;;;;;;5094030;28;20201;-77
2023/02/19 08:54:21;;;;;;;10.07;2.60;;;10.60;99.90;;;;;;5094003;28;20201;-79
2023/02/19 08:56:48;;;;;;;6.93;2.87;;;10.70;99.90;;;;;;5093056;28;20234;-77
2023/02/19 08:59:19;;;;;;;9.33;3.60;;;10.50;99.90;;;;;;5090566;28;20212;-77
2023/02/19 09:01:45;;;;;;;11.37;2.70;;;10.60;99.90;;;;;;5086468;28;20204;-79
2023/02/19 09:04:13;;;;;;;8.87;2.33;;;10.70;99.90;;;;;;5085539;28;20205;-78
2023/02/19 09:06:39;;;;;;;7.80;2.30;;;10.70;99.90;;;;;;5092595;28;20212;-77
2023/02/19 09:09:09;;;;;;;8.73;2.53;;;10.70;99.90;;;;;;5093201;28;20666;-79
2023/02/19 09:11:38;;;;;;;10.93;2.50;;;10.80;99.90;;;;;;5092399;28;20224;-78
2023/02/19 09:14:06;;;;;;;12.43;3.37;;;10.80;99.90;;;;;;5092959;28;20203;-79
2023/02/19 09:16:33;;;;;;;9.40;2.43;;;10.90;99.90;;;;;;5088139;28;20229;-80
2023/02/19 09:19:01;;;;;;;13.33;2.77;;;10.90;99.90;;;;;;5090307;28;20221;-81
2023/02/19 09:21:27;;;;;;;13.90;3.10;;;11.00;99.90;;;;;;5088307;28;20195;-76
2023/02/19 09:23:55;;;;;;;10.70;3.03;;;11.00;99.90;;;;;;5090787;28;20202;-82
2023/02/19 09:26:24;;;;;;;9.57;2.60;;;10.90;99.90;;;;;;5089663;28;20205;-77
2023/02/19 09:28:51;;;;;;;11.67;3.77;;;10.80;99.90;;;;;;5090884;28;20206;-76
2023/02/19 09:31:17;;;;;;;4.27;1.90;;;11.00;99.90;;;;;;5090265;28;20213;-77
2023/02/19 09:33:46;;;;;;;8.97;2.27;;;10.90;99.90;;;;;;5093132;28;20203;-77
2023/02/19 09:36:18;;;;;;;11.47;2.97;;;10.90;99.90;;;;;;5093850;28;20224;-82
2023/02/19 09:38:45;;;;;;;11.40;2.67;;;10.80;99.90;;;;;;5087688;28;20202;-76
2023/02/19 09:41:18;;;;;;;6.70;2.37;;;10.80;99.90;;;;;;5091174;28;20193;-78
2023/02/19 09:43:47;;;;;;;8.33;2.33;;;10.90;99.90;;;;;;5089487;28;20222;-80
2023/02/19 09:46:25;;;;;;;10.90;3.20;;;11.00;99.90;;;;;;5090691;28;20614;-85
2023/02/19 09:48:54;;;;;;;9.47;2.60;;;11.00;99.90;;;;;;5090354;28;20204;-77
2023/02/19 09:51:21;;;;;;;9.43;2.57;;;11.00;99.90;;;;;;5089774;28;20202;-77
2023/02/19 09:53:51;;;;;;;12.40;3.67;;;11.00;99.90;;;;;;5091936;28;20198;-78
2023/02/19 09:56:18;;;;;;;14.10;2.80;;;10.90;99.90;;;;;;5089664;28;20226;-78
2023/02/19 09:58:52;;;;;;;10.80;3.00;;;11.00;99.90;;;;;;5092197;28;20214;-83
2023/02/19 10:01:19;;;;;;;9.40;3.00;;;11.10;99.90;;;;;;5088059;28;20673;-75
2023/02/19 10:03:48;;;;;;;11.50;3.00;;;11.10;99.90;;;;;;5090976;28;20577;-77
2023/02/19 10:06:20;;;;;;;10.03;2.57;;;11.20;99.90;;;;;;5089065;28;20212;-79
2023/02/19 10:08:49;;;;;;;7.33;2.23;;;11.00;99.90;;;;;;5088731;28;20651;-80
2023/02/19 10:11:17;;;;;;;11.93;3.07;;;11.10;99.90;;;;;;5087979;28;20279;-80
2023/02/19 10:13:51;;;;;;;9.53;3.10;;;11.20;99.90;;;;;;5084410;28;20221;-91
2023/02/19 10:16:22;;;;;;;8.37;2.50;;;11.20;99.90;;;;;;5089406;28;20229;-88
2023/02/19 10:18:50;;;;;;;10.67;2.83;;;11.20;99.90;;;;;;5089850;28;20206;-89
2023/02/19 10:21:21;;;;;;;10.90;2.80;;;11.20;99.90;;;;;;5092997;28;20199;-90
2023/02/19 10:23:54;;;;;;;6.80;1.93;;;11.20;99.90;;;;;;5095646;28;20638;-90
2023/02/19 10:26:22;;;;;;;8.70;2.57;;;11.30;99.90;;;;;;5100723;28;20194;-89
2023/02/19 10:28:50;;;;;;;9.17;2.70;;;11.30;99.90;;;;;;5098854;28;20198;-90
2023/02/19 10:31:22;;;;;;;6.90;2.27;;;11.30;99.90;;;;;;5091109;28;20212;-89
2023/02/19 10:33:50;;;;;;;8.87;2.57;;;11.20;99.90;;;;;;5092941;28;20582;-76
2023/02/19 10:36:28;;;;;;;11.20;2.70;;;11.20;99.90;;;;;;5092313;28;20234;-78
2023/02/19 10:38:56;;;;;;;8.27;2.80;;;11.10;99.90;;;;;;5091233;28;20286;-81
2023/02/19 10:41:25;;;;;;;8.60;3.47;;;11.20;99.90;;;;;;5091910;28;20210;-79
2023/02/19 10:43:56;;;;;;;8.70;2.63;;;11.30;99.90;;;;;;5091885;28;20431;-78
2023/02/19 10:46:25;;;;;;;7.93;2.80;;;11.30;99.90;;;;;;5091258;28;20215;-78
2023/02/19 10:48:53;;;;;;;10.80;2.80;;;11.40;99.90;;;;;;5090254;28;20662;-78
2023/02/19 10:51:21;;;;;;;11.30;3.17;;;11.30;99.90;;;;;;5092078;28;20209;-78
2023/02/19 10:53:50;;;;;;;6.07;2.27;;;11.30;99.90;;;;;;5091397;28;20202;-80
2023/02/19 10:56:24;;;;;;;9.63;2.20;;;11.40;99.90;;;;;;5091500;28;20317;-80
2023/02/19 10:58:51;;;;;;;5.50;1.97;;;11.50;99.90;;;;;;5091845;28;20206;-79
2023/02/19 11:01:21;;;;;;;10.83;2.60;;;11.40;99.90;;;;;;5091935;28;20212;-77
2023/02/19 11:03:50;;;;;;;9.13;2.83;;;11.50;99.90;;;;;;5094735;28;20207;-79
2023/02/19 11:06:20;;;;;;;9.20;2.40;;;11.70;99.90;;;;;;5095531;28;20204;-76
2023/02/19 11:08:55;;;;;;;9.00;2.23;;;11.60;99.90;;;;;;5095373;28;20252;-78
2023/02/19 11:11:29;;;;;;;8.33;2.70;;;11.40;99.90;;;;;;5095626;28;20270;-78
2023/02/19 11:13:57;;;;;;;7.13;2.27;;;11.30;99.90;;;;;;5094132;28;20198;-77
2023/02/19 11:16:44;;;;;;;6.20;2.77;;;11.20;99.90;;;;;;5095365;28;20223;-77
2023/02/19 11:19:28;;;;;;;7.00;2.50;;;11.20;99.90;;;;;;5094834;28;20272;-75
2023/02/19 11:21:56;;;;;;;7.07;2.60;;;11.20;99.90;;;;;;5088951;28;20634;-76
2023/02/19 11:24:33;;;;;;;6.23;2.50;;;11.10;99.90;;;;;;5085950;28;20245;-78
2023/02/19 11:27:02;;;;;;;5.77;2.37;;;11.00;99.90;;;;;;5093207;28;20240;-79
2023/02/19 11:29:33;;;;;;;4.83;3.00;;;11.10;99.90;;;;;;5088889;28;20229;-82
2023/02/19 11:32:25;;;;;;;5.87;2.50;;;11.10;99.90;;;;;;5095890;28;20675;-78
2023/02/19 11:34:52;;;;;;;3.77;2.17;;;11.20;99.90;;;;;;5094489;28;20694;-79
2023/02/19 11:37:21;;;;;;;5.73;2.50;;;11.10;99.90;;;;;;5094410;28;20221;-78
2023/02/19 11:39:49;;;;;;;5.83;2.87;;;11.00;99.90;;;;;;5093376;28;20472;-92
2023/02/19 11:42:40;;;;;;;6.57;2.73;;;11.20;99.90;;;;;;5095466;28;20203;-87
2023/02/19 11:45:22;;;;;;;6.73;2.60;;;10.90;99.90;;;;;;5091380;28;20218;-81
2023/02/19 11:48:25;;;;;;;3.87;2.00;;;11.10;99.90;;;;;;5094101;28;20206;-76
2023/02/19 11:51:16;;;;;;;5.97;2.40;;;10.90;99.90;;;;;;5093270;28;20657;-82
2023/02/19 11:53:48;;;;;;;6.80;2.60;;;11.00;99.90;;;;;;5094357;28;20202;-79
2023/02/19 11:56:18;;;;;;;6.97;2.10;;;11.10;99.90;;;;;;5093137;28;20229;-79
2023/02/19 11:58:55;;;;;;;4.87;2.00;;;11.40;99.90;;;;;;5094182;28;20215;-81
2023/02/19 12:01:29;;;;;;;5.63;2.10;;;11.30;99.90;;;;;;5095126;28;20199;-79
2023/02/19 12:04:25;;;;;;;9.17;2.20;;;11.20;99.90;;;;;;5095249;28;20286;-78
2023/02/19 12:07:06;;;;;;;4.57;3.03;;;11.10;99.90;;;;;;5095073;28;20312;-80
2023/02/19 12:09:58;;;;;;;7.40;2.30;;;11.20;99.90;;;;;;5094063;28;20541;-76
2023/02/19 12:12:46;;;;;;;4.63;1.93;;;11.20;99.90;;;;;;5088645;28;20676;-80
2023/02/19 12:15:27;;;;;;;6.70;2.27;;;11.20;99.90;;;;;;5094613;28;20210;-76
2023/02/19 12:18:15;;;;;;;5.27;1.97;;;11.10;99.90;;;;;;5095586;28;20233;-80
2023/02/19 12:21:00;;;;;;;3.03;1.63;;;10.90;99.90;;;;;;5091146;28;20656;-81
2023/02/19 12:23:42;;;;;;;4.43;2.20;;;10.90;99.90;;;;;;5090551;28;20210;-83
2023/02/19 12:26:18;;;;;;;4.47;1.90;;;11.00;99.90;;;;;;5086368;28;20212;-86
2023/02/19 12:29:13;;;;;;;4.47;1.80;;;10.90;99.90;;;;;;5089232;28;20210;-85
2023/02/19 12:32:18;;;;;;;5.57;1.90;;;11.00;99.90;;;;;;5088760;28;20649;-85
2023/02/19 12:35:13;;;;;;;3.90;1.97;;;11.10;99.90;;;;;;5091352;28;20201;-84
2023/02/19 12:37:49;;;;;;;3.73;2.40;;;11.20;99.90;;;;;;5085466;28;20696;-83
2023/02/19 12:40:30;;;;;;;7.60;2.33;;;11.00;99.90;;;;;;5092397;28;20202;-84
2023/02/19 12:43:09;;;;;;;8.83;2.40;;;11.00;99.90;;;;;;5085786;28;20572;-87
2023/02/19 12:45:42;;;;;;;7.97;2.40;;;11.10;99.90;;;;;;5090138;28;20207;-86
2023/02/19 12:48:16;;;;;;;4.77;2.17;;;11.00;99.90;;;;;;5084392;28;20206;-84
2023/02/19 12:50:47;;;;;;;3.97;2.10;;;11.00;99.90;;;;;;5091859;28;20210;-82
2023/02/19 12:53:25;;;;;;;7.47;2.13;;;10.90;99.90;;;;;;5081015;28;20597;-77
2023/02/19 12:55:56;;;;;;;6.43;2.72;;;11.00;99.90;;;;;;5091567;28;20474;-78
2023/02/19 12:58:28;;;;;;;4.27;2.30;;;10.90;99.90;;;;;;5082158;28;20206;-79
2023/02/19 13:00:58;;;;;;;7.03;2.83;;;10.70;99.90;;;;;;5094939;28;20201;-77
2023/02/19 13:03:31;;;;;;;6.13;2.50;;;10.50;99.90;;;;;;5094813;28;20293;-78
2023/02/19 13:06:03;;;;;;;4.10;2.67;;;10.40;99.90;;;;;;5095107;28;20350;-80
2023/02/19 13:08:36;;;;;;;9.20;2.80;;;10.40;99.90;;;;;;5092175;28;20206;-78
2023/02/19 13:11:11;;;;;;;6.70;2.63;;;10.40;99.90;;;;;;5093329;28;20224;-78
2023/02/19 13:13:44;;;;;;;9.03;2.67;;;10.50;99.90;;;;;;5092050;28;20629;-77
2023/02/19 13:16:14;;;;;;;4.70;2.70;;;10.60;99.90;;;;;;5092412;28;20293;-78
2023/02/19 13:18:46;;;;;;;5.47;2.70;;;10.70;99.90;;;;;;5092308;28;20255;-79
2023/02/19 13:23:57;;;;;;;4.90;2.40;;;10.70;99.90;;;;;;5092733;28;20205;-81
2023/02/19 13:24:07;;;;;;;8.43;3.23;;;10.90;99.90;;;;;;5091080;28;20524;-80
2023/02/19 13:26:57;;;;;;;7.70;2.80;;;10.80;99.90;;;;;;5089062;28;20676;-79